Time;durP1;ratioP1;P1;durP2;ratioP2;P2;SDS_P1;SDS_P2;PMS_P1;PMS_P2;Temp;Humidity;BMP_temperature;BMP_pressure;BME280_temperature;BME280_humidity;BME280_pressure;Samples;Min_cycle;Max_cycle;Signal;HPM_P1;HPM_P2
2021/06/13 00:00:00;;;;;;;21.23;5.40;;;13.30;99.90;;;;;;4976237;28;20074;-74
2021/06/13 00:02:25;;;;;;;23.13;7.20;;;13.30;99.90;;;;;;4977369;28;20502;-75
2021/06/13 00:04:52;;;;;;;19.13;6.32;;;13.30;99.90;;;;;;4972579;28;20081;-75
2021/06/13 00:07:17;;;;;;;24.27;7.43;;;13.30;99.90;;;;;;4976864;28;20113;-75
2021/06/13 00:09:43;;;;;;;16.85;6.53;;;13.30;99.90;;;;;;4976726;28;20050;-75
2021/06/13 00:12:11;;;;;;;25.45;6.93;;;13.30;99.90;;;;;;4976996;28;20037;-75
2021/06/13 00:14:36;;;;;;;28.17;7.28;;;13.30;99.90;;;;;;4975201;28;20058;-75
2021/06/13 00:17:02;;;;;;;18.40;6.03;;;13.30;99.90;;;;;;4975453;28;20027;-76
2021/06/13 00:19:28;;;;;;;25.45;6.68;;;13.30;99.90;;;;;;4975827;28;20090;-75
2021/06/13 00:21:54;;;;;;;24.48;7.13;;;13.20;99.90;;;;;;4975964;28;20046;-75
2021/06/13 00:24:21;;;;;;;19.13;5.90;;;13.20;99.90;;;;;;4977483;28;20050;-75
2021/06/13 00:26:47;;;;;;;22.30;6.38;;;13.20;99.90;;;;;;4976121;28;20033;-74
2021/06/13 00:29:12;;;;;;;22.58;5.95;;;13.20;99.90;;;;;;4974929;28;20031;-75
2021/06/13 00:31:38;;;;;;;27.20;6.18;;;13.20;99.90;;;;;;4976551;28;20027;-74
2021/06/13 00:34:03;;;;;;;21.60;7.68;;;13.20;99.90;;;;;;4976530;28;20108;-74
2021/06/13 00:36:29;;;;;;;23.73;6.20;;;13.20;99.90;;;;;;4974821;28;20558;-75
2021/06/13 00:38:55;;;;;;;21.38;6.63;;;13.20;99.90;;;;;;4970430;28;20173;-74
2021/06/13 00:41:23;;;;;;;17.30;5.80;;;13.20;99.90;;;;;;4976092;28;20101;-74
2021/06/13 00:43:49;;;;;;;23.40;7.40;;;13.20;99.90;;;;;;4975482;28;20025;-75
2021/06/13 00:46:14;;;;;;;16.60;7.13;;;13.20;99.90;;;;;;4976317;28;20391;-75
2021/06/13 00:48:40;;;;;;;22.70;6.20;;;13.20;99.90;;;;;;4975743;28;20038;-75
2021/06/13 00:51:06;;;;;;;22.00;7.78;;;13.20;99.90;;;;;;4974291;28;20525;-74
2021/06/13 00:53:31;;;;;;;17.33;5.72;;;13.30;99.90;;;;;;4975194;28;20081;-74
2021/06/13 00:55:59;;;;;;;11.57;5.47;;;13.20;99.90;;;;;;4976384;28;20030;-75
2021/06/13 00:58:25;;;;;;;18.10;6.65;;;13.20;99.90;;;;;;4976575;28;20345;-76
2021/06/13 01:00:50;;;;;;;19.20;6.50;;;13.20;99.90;;;;;;4975363;28;20498;-75
2021/06/13 01:03:17;;;;;;;22.33;6.63;;;13.20;99.90;;;;;;4975331;28;20058;-74
2021/06/13 01:05:44;;;;;;;14.52;5.93;;;13.20;99.90;;;;;;4971225;28;20387;-75
2021/06/13 01:08:25;;;;;;;16.30;6.93;;;13.20;99.90;;;;;;4976098;28;20034;-75
2021/06/13 01:10:51;;;;;;;12.95;6.07;;;13.20;99.90;;;;;;4973749;28;20089;-75
2021/06/13 01:13:33;;;;;;;21.98;7.75;;;13.20;99.90;;;;;;4976087;28;20046;-74
2021/06/13 01:16:36;;;;;;;16.70;6.60;;;13.20;99.90;;;;;;4975360;28;20082;-75
2021/06/13 01:19:15;;;;;;;22.95;7.00;;;13.20;99.90;;;;;;4974242;28;20043;-75
2021/06/13 01:21:58;;;;;;;27.70;7.47;;;13.20;99.90;;;;;;4976026;28;20462;-75
2021/06/13 01:25:10;;;;;;;35.17;8.18;;;13.10;99.90;;;;;;4975565;28;20034;-74
2021/06/13 01:28:00;;;;;;;22.35;7.57;;;13.10;99.90;;;;;;4965310;28;20050;-74
2021/06/13 01:30:31;;;;;;;25.60;8.80;;;13.00;99.90;;;;;;4975440;28;20034;-75
2021/06/13 01:33:01;;;;;;;24.35;7.47;;;13.00;99.90;;;;;;4973758;28;20110;-75
2021/06/13 01:35:27;;;;;;;18.38;6.80;;;13.00;99.90;;;;;;4973587;28;20088;-74
2021/06/13 01:37:56;;;;;;;26.08;9.10;;;13.00;99.90;;;;;;4974808;28;20038;-75
2021/06/13 01:40:27;;;;;;;15.90;6.43;;;13.00;99.90;;;;;;4974686;28;20027;-75
2021/06/13 01:42:54;;;;;;;23.20;9.05;;;13.10;99.90;;;;;;4989628;28;20054;-75
2021/06/13 01:45:23;;;;;;;18.23;9.05;;;13.10;99.90;;;;;;4974297;28;20551;-75
2021/06/13 01:47:50;;;;;;;22.10;7.15;;;13.00;99.90;;;;;;4975119;28;20077;-75
2021/06/13 01:50:17;;;;;;;28.40;8.52;;;13.00;99.90;;;;;;4975527;28;20038;-75
2021/06/13 01:52:47;;;;;;;18.38;6.85;;;12.90;99.90;;;;;;4974929;28;20379;-75
2021/06/13 01:55:13;;;;;;;21.60;7.97;;;12.90;99.90;;;;;;4974974;28;20031;-75
2021/06/13 01:57:41;;;;;;;22.65;7.30;;;12.90;99.90;;;;;;4973943;28;20051;-75
2021/06/13 02:00:11;;;;;;;28.48;7.30;;;12.90;99.90;;;;;;4972577;28;20047;-75
2021/06/13 02:02:39;;;;;;;17.80;7.05;;;12.90;99.90;;;;;;4973229;28;20026;-75
2021/06/13 02:05:06;;;;;;;;;;;12.90;99.90;;;;;;4975828;28;20035;-75
2021/06/13 02:07:36;;;;;;;37.97;8.05;;;12.90;99.90;;;;;;4975645;28;19957;-75
2021/06/13 02:10:06;;;;;;;23.95;7.05;;;12.90;99.90;;;;;;4973379;28;20043;-74
2021/06/13 02:12:36;;;;;;;17.38;6.30;;;12.80;99.90;;;;;;4973438;28;20085;-75
2021/06/13 02:15:04;;;;;;;17.90;6.88;;;12.80;99.90;;;;;;4975234;28;20034;-75
2021/06/13 02:17:34;;;;;;;15.82;5.78;;;12.90;99.90;;;;;;4973764;28;20032;-75
2021/06/13 02:19:59;;;;;;;24.77;5.97;;;12.90;99.90;;;;;;4974310;28;20034;-75
2021/06/13 02:22:25;;;;;;;24.35;7.30;;;12.90;99.90;;;;;;4975274;28;20403;-75
2021/06/13 02:24:51;;;;;;;18.67;6.93;;;12.90;99.90;;;;;;4975684;28;20475;-74
2021/06/13 02:27:27;;;;;;;21.58;8.23;;;12.80;99.90;;;;;;4975617;28;20039;-75
2021/06/13 02:29:52;;;;;;;22.88;7.28;;;12.80;99.90;;;;;;4982409;28;20046;-75
2021/06/13 02:32:22;;;;;;;23.25;7.32;;;12.80;99.90;;;;;;4992680;28;20031;-74
2021/06/13 02:34:49;;;;;;;24.50;7.60;;;12.80;99.90;;;;;;4993445;28;20061;-74
2021/06/13 02:37:16;;;;;;;27.60;8.48;;;12.80;99.90;;;;;;4994244;28;20025;-75
2021/06/13 02:39:42;;;;;;;22.35;8.15;;;12.80;99.90;;;;;;4995240;28;20535;-75
2021/06/13 02:42:08;;;;;;;22.83;6.97;;;12.80;99.90;;;;;;4995785;28;20045;-74
2021/06/13 02:44:34;;;;;;;15.02;6.93;;;12.80;99.90;;;;;;4994577;28;20082;-75
2021/06/13 02:46:59;;;;;;;22.60;7.72;;;12.80;99.90;;;;;;4998569;28;20011;-75
2021/06/13 02:49:25;;;;;;;20.00;7.88;;;12.80;99.90;;;;;;4998701;28;20041;-74
2021/06/13 02:52:20;;;;;;;22.15;6.63;;;12.80;99.90;;;;;;4997849;28;20021;-75
2021/06/13 02:54:46;;;;;;;18.92;7.35;;;12.80;99.90;;;;;;4998777;28;20090;-74
2021/06/13 02:57:25;;;;;;;27.00;6.78;;;12.80;99.90;;;;;;4998551;28;20039;-74
2021/06/13 03:00:05;;;;;;;14.77;6.10;;;12.80;99.90;;;;;;4996789;28;20030;-73
2021/06/13 03:02:31;;;;;;;18.38;6.15;;;12.80;99.90;;;;;;4988136;28;20511;-74
2021/06/13 03:05:04;;;;;;;18.83;7.43;;;12.70;99.90;;;;;;4980286;28;20034;-75
2021/06/13 03:07:30;;;;;;;24.75;7.13;;;12.70;99.90;;;;;;4995371;28;20038;-74
2021/06/13 03:09:58;;;;;;;23.55;7.22;;;12.70;99.90;;;;;;4981755;28;20038;-74
2021/06/13 03:12:24;;;;;;;25.35;7.45;;;12.60;99.90;;;;;;4981201;28;20034;-75
2021/06/13 03:14:52;;;;;;;17.95;6.43;;;12.60;99.90;;;;;;4979765;28;20027;-74
2021/06/13 03:17:20;;;;;;;16.83;6.53;;;12.60;99.90;;;;;;4978378;28;20049;-74
2021/06/13 03:19:47;;;;;;;20.85;7.20;;;12.70;99.90;;;;;;4978771;28;20050;-75
2021/06/13 03:22:13;;;;;;;16.73;6.43;;;12.70;99.90;;;;;;4979220;28;20125;-75
2021/06/13 03:24:42;;;;;;;31.35;9.15;;;12.70;99.90;;;;;;4976235;28;20289;-75
2021/06/13 03:27:09;;;;;;;24.98;7.90;;;12.70;99.90;;;;;;4977894;28;20027;-74
2021/06/13 03:29:43;;;;;;;36.35;8.00;;;12.70;99.90;;;;;;4977793;28;20066;-75
2021/06/13 03:32:10;;;;;;;23.67;6.78;;;12.70;99.90;;;;;;4977746;28;20126;-75
2021/06/13 03:34:38;;;;;;;25.08;7.82;;;12.70;99.90;;;;;;4977742;28;20030;-75
2021/06/13 03:37:06;;;;;;;22.02;7.07;;;12.70;99.90;;;;;;4978075;28;20106;-75
2021/06/13 03:39:33;;;;;;;20.67;6.95;;;12.70;99.90;;;;;;4975705;28;20023;-75
2021/06/13 03:41:59;;;;;;;21.35;7.55;;;12.70;99.90;;;;;;4977172;28;20069;-74
2021/06/13 03:44:26;;;;;;;21.38;8.52;;;12.80;99.90;;;;;;4977816;28;20043;-75
2021/06/13 03:46:54;;;;;;;26.45;7.82;;;12.70;99.90;;;;;;4976204;28;20042;-75
2021/06/13 03:49:21;;;;;;;24.98;7.65;;;12.70;99.90;;;;;;4975661;28;20434;-75
2021/06/13 03:51:46;;;;;;;13.05;5.90;;;12.60;99.90;;;;;;4977842;28;20026;-75
2021/06/13 03:54:12;;;;;;;18.95;7.63;;;12.60;99.90;;;;;;4976466;28;20387;-75
2021/06/13 03:56:45;;;;;;;20.17;6.13;;;12.70;99.90;;;;;;4976168;28;20066;-75
2021/06/13 03:59:13;;;;;;;18.90;5.70;;;12.70;99.90;;;;;;4976127;28;20047;-75
2021/06/13 04:01:41;;;;;;;14.45;5.90;;;12.80;99.90;;;;;;4977127;28;20055;-75
2021/06/13 04:04:09;;;;;;;16.75;6.60;;;12.80;99.90;;;;;;4975924;28;20054;-76
2021/06/13 04:06:36;;;;;;;23.83;7.75;;;12.80;99.90;;;;;;4975658;28;20109;-75
2021/06/13 04:09:02;;;;;;;15.75;6.72;;;12.70;99.90;;;;;;4977043;28;20379;-75
2021/06/13 04:11:30;;;;;;;19.80;6.30;;;12.80;99.90;;;;;;4973372;28;20030;-75
2021/06/13 04:13:56;;;;;;;17.98;6.07;;;12.90;99.90;;;;;;4975633;28;20031;-75
2021/06/13 04:16:23;;;;;;;17.15;7.00;;;12.90;99.90;;;;;;4977264;28;20030;-75
2021/06/13 04:18:49;;;;;;;9.57;5.47;;;13.00;99.90;;;;;;4977091;28;20086;-75
2021/06/13 04:21:16;;;;;;;9.50;5.78;;;13.00;99.90;;;;;;4975085;28;20030;-75
2021/06/13 04:23:43;;;;;;;13.18;5.82;;;13.00;99.90;;;;;;4975917;28;20030;-75
2021/06/13 04:26:13;;;;;;;21.13;6.00;;;13.10;99.90;;;;;;4974951;28;20031;-75
2021/06/13 04:28:39;;;;;;;14.93;6.00;;;13.10;99.90;;;;;;4975409;28;20043;-75
2021/06/13 04:31:05;;;;;;;14.93;6.18;;;13.10;99.90;;;;;;4975809;28;20035;-75
2021/06/13 04:33:32;;;;;;;25.48;8.63;;;13.10;99.90;;;;;;4976353;28;20026;-75
2021/06/13 04:35:57;;;;;;;16.88;5.40;;;13.10;99.90;;;;;;4975108;28;20089;-75
2021/06/13 04:38:23;;;;;;;18.02;6.72;;;13.20;99.90;;;;;;4975770;28;20038;-75
2021/06/13 04:40:50;;;;;;;17.92;6.35;;;13.20;99.90;;;;;;4976560;28;20349;-75
2021/06/13 04:43:16;;;;;;;12.82;6.03;;;13.20;99.90;;;;;;4976419;28;20035;-75
2021/06/13 04:45:41;;;;;;;11.82;5.85;;;13.30;99.90;;;;;;4974524;28;20042;-75
2021/06/13 04:48:07;;;;;;;10.73;5.28;;;13.30;99.90;;;;;;4976022;28;20027;-75
2021/06/13 04:50:35;;;;;;;12.68;5.47;;;13.40;99.90;;;;;;4976676;28;20011;-75
2021/06/13 04:53:02;;;;;;;12.73;5.72;;;13.40;99.90;;;;;;4976495;28;20027;-75
2021/06/13 04:55:47;;;;;;;11.43;6.03;;;13.40;99.90;;;;;;4974686;28;20046;-75
2021/06/13 04:58:24;;;;;;;15.73;5.90;;;13.50;99.90;;;;;;4958495;28;20189;-75
2021/06/13 05:00:49;;;;;;;21.57;6.63;;;13.50;99.90;;;;;;4974650;28;20031;-74
2021/06/13 05:03:15;;;;;;;19.17;5.90;;;13.50;99.90;;;;;;4975759;28;20711;-75
2021/06/13 05:05:41;;;;;;;20.70;5.68;;;13.60;99.90;;;;;;4974640;28;20029;-75
2021/06/13 05:08:06;;;;;;;15.80;6.25;;;13.70;99.90;;;;;;4975843;28;20026;-75
2021/06/13 05:10:32;;;;;;;17.90;5.28;;;13.80;99.90;;;;;;4976115;28;20023;-75
2021/06/13 05:12:58;;;;;;;13.43;6.43;;;13.80;99.90;;;;;;4973728;28;20023;-75
2021/06/13 05:15:23;;;;;;;16.98;5.57;;;13.80;99.90;;;;;;4975280;28;20395;-74
2021/06/13 05:17:50;;;;;;;13.98;5.07;;;13.90;99.90;;;;;;4975791;28;20445;-75
2021/06/13 05:20:16;;;;;;;11.73;5.20;;;14.00;99.90;;;;;;4974350;28;20404;-75
2021/06/13 05:23:01;;;;;;;19.08;5.57;;;14.10;99.90;;;;;;4974538;28;20460;-74
2021/06/13 05:25:29;;;;;;;16.20;5.10;;;14.10;99.90;;;;;;4969410;28;20026;-75
2021/06/13 05:27:56;;;;;;;13.38;5.70;;;14.20;99.90;;;;;;4975928;28;20035;-75
2021/06/13 05:30:24;;;;;;;18.03;5.43;;;14.30;99.90;;;;;;4975694;28;20423;-75
2021/06/13 05:32:50;;;;;;;14.73;5.22;;;14.40;99.90;;;;;;4974738;28;20281;-75
2021/06/13 05:35:16;;;;;;;15.75;5.15;;;14.50;99.90;;;;;;4974833;28;20469;-75
2021/06/13 05:37:42;;;;;;;10.57;4.10;;;14.60;99.90;;;;;;4973708;28;20034;-75
2021/06/13 05:40:09;;;;;;;13.57;4.18;;;14.70;99.90;;;;;;4974068;28;20130;-75
2021/06/13 05:42:35;;;;;;;14.10;4.47;;;14.80;99.90;;;;;;4975429;28;20093;-75
2021/06/13 05:45:03;;;;;;;7.40;3.22;;;14.80;99.90;;;;;;4975738;28;20031;-75
2021/06/13 05:47:28;;;;;;;19.20;5.35;;;14.70;99.90;;;;;;4956677;29;20030;-75
2021/06/13 05:49:54;;;;;;;13.68;4.55;;;14.80;99.90;;;;;;4964491;28;20027;-74
2021/06/13 05:52:20;;;;;;;18.45;4.80;;;14.80;99.90;;;;;;4975746;28;20031;-75
2021/06/13 05:54:47;;;;;;;9.80;4.43;;;14.80;99.90;;;;;;4974960;28;20039;-75
2021/06/13 05:57:12;;;;;;;7.28;3.70;;;14.90;99.90;;;;;;4974836;28;20590;-75
2021/06/13 05:59:38;;;;;;;7.82;3.47;;;15.00;99.90;;;;;;4974290;28;20058;-75
2021/06/13 06:02:03;;;;;;;10.70;3.60;;;15.40;99.90;;;;;;4975165;28;20027;-75
2021/06/13 06:04:29;;;;;;;7.57;3.55;;;15.80;99.90;;;;;;4974410;28;20023;-75
2021/06/13 06:06:55;;;;;;;11.07;3.15;;;16.30;99.90;;;;;;4975471;28;20026;-75
2021/06/13 06:09:20;;;;;;;10.00;3.58;;;17.30;99.90;;;;;;4990151;28;20082;-75
2021/06/13 06:11:46;;;;;;;10.52;3.00;;;18.80;99.90;;;;;;4974287;28;20026;-75
2021/06/13 06:14:12;;;;;;;5.45;3.17;;;20.30;99.90;;;;;;4974828;28;20054;-74
2021/06/13 06:16:39;;;;;;;4.45;2.25;;;21.70;98.90;;;;;;4974490;28;20038;-75
2021/06/13 06:19:04;;;;;;;10.73;3.20;;;22.80;97.60;;;;;;4976425;28;20085;-75
2021/06/13 06:21:30;;;;;;;9.32;3.10;;;24.40;95.90;;;;;;4976171;28;20113;-75
2021/06/13 06:23:56;;;;;;;7.32;2.75;;;26.00;93.40;;;;;;4976166;28;20530;-75
2021/06/13 06:26:21;;;;;;;5.43;2.40;;;27.00;90.60;;;;;;4975904;28;20027;-75
2021/06/13 06:28:47;;;;;;;6.30;2.60;;;27.70;90.00;;;;;;4982117;28;20022;-75
2021/06/13 06:31:13;;;;;;;7.57;2.88;;;28.70;88.30;;;;;;4995609;28;20038;-74
2021/06/13 06:33:39;;;;;;;4.68;2.47;;;29.10;86.50;;;;;;4992400;28;20372;-75
2021/06/13 06:36:05;;;;;;;7.60;2.88;;;29.40;85.30;;;;;;4993102;28;20035;-75
2021/06/13 06:38:32;;;;;;;5.88;2.47;;;29.60;83.00;;;;;;4994689;28;20078;-75
2021/06/13 06:40:58;;;;;;;8.38;3.00;;;29.10;82.30;;;;;;4995564;28;20030;-75
2021/06/13 06:43:25;;;;;;;5.82;2.60;;;28.40;80.90;;;;;;4995877;28;20093;-76
2021/06/13 06:45:50;;;;;;;6.90;1.83;;;28.10;80.70;;;;;;4996876;28;20046;-75
2021/06/13 06:48:16;;;;;;;4.00;2.42;;;27.80;80.20;;;;;;4997611;28;20039;-75
2021/06/13 06:50:42;;;;;;;5.75;2.50;;;27.30;79.70;;;;;;4995192;28;20058;-75
2021/06/13 06:53:08;;;;;;;4.35;2.47;;;27.30;79.80;;;;;;4993945;28;20031;-74
2021/06/13 06:55:35;;;;;;;5.72;2.97;;;27.50;80.00;;;;;;4997279;28;20030;-74
2021/06/13 06:58:00;;;;;;;5.72;2.67;;;27.20;79.50;;;;;;4997359;28;20103;-74
2021/06/13 07:00:26;;;;;;;6.05;2.65;;;26.50;81.70;;;;;;4998740;28;20019;-74
2021/06/13 07:02:52;;;;;;;6.63;2.63;;;25.40;82.70;;;;;;4998432;28;20034;-74
2021/06/13 07:05:17;;;;;;;8.10;3.20;;;23.50;85.70;;;;;;4997942;28;20034;-74
2021/06/13 07:07:43;;;;;;;8.10;2.67;;;22.20;90.30;;;;;;4997480;28;20019;-74
2021/06/13 07:10:10;;;;;;;7.68;2.65;;;21.60;90.80;;;;;;4992411;28;20041;-74
2021/06/13 07:12:36;;;;;;;6.38;2.60;;;21.60;91.10;;;;;;4980235;28;20035;-75
2021/06/13 07:15:04;;;;;;;6.30;2.70;;;22.10;90.70;;;;;;4980475;28;20035;-74
2021/06/13 07:17:30;;;;;;;7.18;3.10;;;22.30;90.80;;;;;;4979351;28;20034;-74
2021/06/13 07:19:55;;;;;;;7.53;2.65;;;23.00;90.60;;;;;;4979568;28;20030;-74
2021/06/13 07:22:23;;;;;;;6.00;2.85;;;24.10;90.00;;;;;;4976229;28;20029;-74
2021/06/13 07:24:49;;;;;;;;;;;24.90;87.10;;;;;;4977342;28;20069;-74
2021/06/13 07:27:14;;;;;;;6.55;2.40;;;25.70;86.30;;;;;;4975066;28;19910;-74
2021/06/13 07:29:40;;;;;;;6.65;2.75;;;25.30;85.10;;;;;;4974468;28;20031;-74
2021/06/13 07:32:06;;;;;;;5.07;2.85;;;25.30;86.30;;;;;;4973280;28;20066;-74
2021/06/13 07:34:32;;;;;;;4.82;2.60;;;25.40;85.80;;;;;;4974058;28;20038;-75
2021/06/13 07:37:02;;;;;;;5.80;2.72;;;25.50;85.10;;;;;;4974424;28;20038;-75
2021/06/13 07:39:28;;;;;;;4.88;2.60;;;25.10;85.90;;;;;;4973221;28;20476;-75
2021/06/13 07:41:54;;;;;;;6.40;2.70;;;24.30;85.90;;;;;;4972307;28;20047;-74
2021/06/13 07:44:20;;;;;;;10.83;3.63;;;23.50;86.30;;;;;;4973464;28;20034;-74
2021/06/13 07:46:46;;;;;;;7.90;2.65;;;23.00;87.80;;;;;;4973947;28;20074;-74
2021/06/13 07:49:12;;;;;;;6.70;2.30;;;22.60;88.50;;;;;;4973833;28;20023;-74
2021/06/13 07:51:37;;;;;;;6.45;2.78;;;22.70;88.30;;;;;;4972803;28;20498;-75
2021/06/13 07:54:04;;;;;;;5.18;2.88;;;22.60;88.70;;;;;;4971373;28;20038;-73
2021/06/13 07:56:29;;;;;;;7.10;2.90;;;22.60;87.50;;;;;;4972750;28;20121;-77
2021/06/13 07:58:55;;;;;;;3.70;2.20;;;22.70;87.60;;;;;;4977178;28;20193;-75
2021/06/13 08:01:21;;;;;;;5.20;2.25;;;22.90;87.80;;;;;;4977713;28;20213;-74
2021/06/13 08:03:46;;;;;;;7.10;2.17;;;23.30;85.70;;;;;;4976882;28;20539;-74
2021/06/13 08:06:12;;;;;;;5.55;2.50;;;23.60;85.30;;;;;;4977519;28;20411;-74
2021/06/13 08:08:38;;;;;;;11.65;3.60;;;24.00;86.00;;;;;;4977767;28;20018;-73
2021/06/13 08:11:05;;;;;;;9.98;2.83;;;24.20;85.70;;;;;;4991738;28;20041;-74
2021/06/13 08:13:31;;;;;;;;;;;24.40;85.60;;;;;;4977696;28;20022;-74
2021/06/13 08:15:56;;;;;;;7.90;2.50;;;24.30;87.20;;;;;;4963268;28;19911;-73
2021/06/13 08:18:22;;;;;;;6.82;2.92;;;24.50;86.40;;;;;;4979321;28;20105;-74
2021/06/13 08:20:48;;;;;;;10.25;3.20;;;24.60;86.70;;;;;;4976832;28;20033;-75
2021/06/13 08:23:15;;;;;;;7.68;3.03;;;23.70;87.80;;;;;;4976963;28;20035;-75
2021/06/13 08:25:40;;;;;;;;;;;23.70;87.70;;;;;;4976409;28;20050;-75
2021/06/13 08:28:06;;;;;;;6.85;3.25;;;23.50;89.00;;;;;;4975171;28;19910;-76
2021/06/13 08:30:32;;;;;;;7.70;2.97;;;23.80;87.60;;;;;;4975421;28;20026;-76
2021/06/13 08:32:58;;;;;;;4.97;2.47;;;24.10;87.60;;;;;;4975212;28;20038;-75
2021/06/13 08:35:26;;;;;;;5.60;2.53;;;24.40;87.90;;;;;;4968533;28;20495;-75
2021/06/13 08:37:52;;;;;;;7.57;2.50;;;24.20;86.40;;;;;;4975683;28;20035;-75
2021/06/13 08:40:18;;;;;;;8.05;2.95;;;24.40;85.80;;;;;;4975211;28;20049;-75
2021/06/13 08:42:44;;;;;;;9.15;2.88;;;24.20;85.50;;;;;;4976552;28;20058;-74
2021/06/13 08:45:12;;;;;;;8.50;3.10;;;23.80;85.60;;;;;;4975552;28;20027;-74
2021/06/13 08:47:39;;;;;;;8.50;3.08;;;23.40;85.70;;;;;;4978719;28;20026;-74
2021/06/13 08:50:06;;;;;;;;;;;23.60;85.90;;;;;;4958188;28;20431;-75
2021/06/13 08:52:31;;;;;;;8.65;3.10;;;24.30;83.90;;;;;;4966346;28;19910;-75
2021/06/13 08:57:41;;;;;;;5.57;3.00;;;23.30;87.60;;;;;;4976670;28;20411;-75
2021/06/13 09:00:13;;;;;;;9.93;3.55;;;23.20;87.70;;;;;;4974393;28;20030;-75
2021/06/13 09:02:40;;;;;;;4.78;2.13;;;23.40;86.90;;;;;;4973315;28;20058;-75
2021/06/13 09:05:07;;;;;;;;;;;23.50;86.70;;;;;;4978476;28;20085;-75
2021/06/13 09:07:34;;;;;;;7.90;2.80;;;24.10;86.00;;;;;;4974454;28;19957;-75
2021/06/13 09:10:08;;;;;;;7.53;3.00;;;24.70;84.60;;;;;;4974079;28;20019;-76
2021/06/13 09:12:36;;;;;;;7.82;2.60;;;24.40;84.60;;;;;;4975288;28;20043;-75
2021/06/13 09:15:03;;;;;;;8.07;3.15;;;24.00;86.00;;;;;;4974922;28;20045;-75
2021/06/13 09:17:29;;;;;;;7.80;3.25;;;23.30;86.40;;;;;;4973065;28;20447;-75
2021/06/13 09:20:09;;;;;;;5.97;2.75;;;23.40;85.50;;;;;;4974680;28;20034;-75
2021/06/13 09:22:36;;;;;;;4.63;2.65;;;22.50;86.80;;;;;;4974436;28;20038;-75
2021/06/13 09:25:13;;;;;;;10.05;2.92;;;21.70;89.70;;;;;;4980089;28;20020;-75
2021/06/13 09:27:41;;;;;;;9.15;2.65;;;21.60;89.30;;;;;;4965675;28;20027;-75
2021/06/13 09:30:11;;;;;;;9.00;3.38;;;22.00;87.40;;;;;;4981223;28;20083;-75
2021/06/13 09:33:15;;;;;;;5.68;3.30;;;21.70;89.50;;;;;;4961966;28;20031;-74
2021/06/13 09:35:43;;;;;;;9.75;3.42;;;21.10;91.00;;;;;;4966121;28;20050;-75
2021/06/13 09:38:19;;;;;;;8.15;3.05;;;21.10;90.80;;;;;;4967212;28;20054;-75
2021/06/13 09:40:51;;;;;;;7.88;2.78;;;21.20;90.10;;;;;;4965779;28;20031;-75
2021/06/13 09:43:19;;;;;;;5.15;2.65;;;21.60;90.70;;;;;;4965137;28;20038;-75
2021/06/13 09:45:54;;;;;;;8.73;2.88;;;21.40;90.40;;;;;;4970772;28;20030;-74
2021/06/13 09:48:20;;;;;;;7.20;2.55;;;21.20;90.60;;;;;;4972215;28;20038;-75
2021/06/13 09:50:52;;;;;;;5.03;2.90;;;21.00;90.50;;;;;;4966725;28;20387;-74
2021/06/13 09:53:45;;;;;;;6.35;3.00;;;21.00;90.60;;;;;;4970661;28;20981;-75
2021/06/13 09:56:19;;;;;;;6.53;2.67;;;21.30;90.00;;;;;;4974214;28;20395;-75
2021/06/13 09:59:04;;;;;;;10.75;2.78;;;21.10;90.00;;;;;;4973772;28;20031;-75
2021/06/13 10:01:32;;;;;;;5.30;2.90;;;21.10;91.10;;;;;;4970684;28;20023;-76
2021/06/13 10:03:58;;;;;;;;;;;21.70;90.80;;;;;;4971963;28;20046;-76
2021/06/13 10:06:28;;;;;;;5.57;2.03;;;22.60;90.00;;;;;;4973100;28;19916;-76
2021/06/13 10:08:56;;;;;;;4.40;1.92;;;23.30;86.70;;;;;;4966850;28;20029;-75
2021/06/13 10:11:22;;;;;;;6.32;1.90;;;23.60;85.00;;;;;;4971557;28;20026;-76
2021/06/13 10:13:52;;;;;;;7.40;1.88;;;23.80;84.60;;;;;;4970615;28;20031;-75
2021/06/13 10:16:47;;;;;;;3.88;2.08;;;23.20;87.10;;;;;;4974086;28;20101;-75
2021/06/13 10:22:06;;;;;;;11.07;3.28;;;23.70;86.30;;;;;;4973293;28;20121;-75
2021/06/13 10:24:37;;;;;;;12.38;2.83;;;23.80;87.30;;;;;;4966861;28;20515;-75
2021/06/13 10:27:08;;;;;;;7.05;2.50;;;23.40;88.70;;;;;;4966080;28;20019;-75
2021/06/13 10:29:36;;;;;;;11.65;2.70;;;23.20;90.00;;;;;;4964982;28;20051;-75
2021/06/13 10:32:04;;;;;;;17.90;2.70;;;22.70;90.10;;;;;;4965190;28;20056;-75
2021/06/13 10:34:31;;;;;;;7.47;2.30;;;22.50;90.10;;;;;;4964077;28;20030;-76
2021/06/13 10:36:58;;;;;;;;;;;22.60;89.20;;;;;;4964632;28;20503;-75
2021/06/13 10:39:29;;;;;;;5.50;2.80;;;22.80;90.00;;;;;;4965455;28;20382;-74
2021/06/13 10:41:55;;;;;;;9.15;3.20;;;23.00;88.20;;;;;;4965777;28;20046;-74
2021/06/13 10:44:23;;;;;;;7.53;2.28;;;23.00;89.00;;;;;;4964828;28;20027;-75
2021/06/13 10:46:49;;;;;;;;;;;23.00;88.70;;;;;;4965739;28;20027;-75
2021/06/13 10:49:31;;;;;;;5.82;2.70;;;23.50;88.10;;;;;;4965740;28;19960;-75
2021/06/13 10:52:17;;;;;;;5.78;2.88;;;23.90;86.80;;;;;;4965715;28;20404;-75
2021/06/13 10:54:52;;;;;;;10.80;3.38;;;24.20;87.50;;;;;;4965660;28;20472;-75
2021/06/13 10:57:25;;;;;;;6.72;2.88;;;24.10;88.60;;;;;;4965429;28;20039;-74
2021/06/13 10:59:59;;;;;;;7.20;3.08;;;23.70;87.70;;;;;;4966650;28;20349;-74
2021/06/13 11:02:34;;;;;;;16.23;3.88;;;23.20;88.40;;;;;;4964398;28;20490;-74
2021/06/13 11:05:02;;;;;;;8.02;2.80;;;22.60;89.70;;;;;;4976435;28;20395;-74
2021/06/13 11:07:43;;;;;;;9.52;2.70;;;22.60;89.70;;;;;;4978084;28;20088;-74
2021/06/13 11:10:15;;;;;;;8.32;2.53;;;22.80;90.50;;;;;;4975241;28;20026;-74
2021/06/13 11:12:53;;;;;;;4.13;2.22;;;22.80;90.50;;;;;;4973206;28;20089;-74
2021/06/13 11:15:28;;;;;;;9.30;2.60;;;22.50;90.70;;;;;;4966003;28;20495;-74
2021/06/13 11:18:06;;;;;;;14.88;2.72;;;22.30;89.50;;;;;;4967800;28;20043;-75
2021/06/13 11:23:42;;;;;;;12.68;3.50;;;22.00;90.90;;;;;;4966211;28;20042;-74
2021/06/13 11:26:28;;;;;;;5.38;2.83;;;22.20;90.90;;;;;;4935828;28;20039;-75
2021/06/13 11:28:53;;;;;;;5.78;2.30;;;22.30;91.20;;;;;;4967729;28;20110;-75
2021/06/13 11:31:24;;;;;;;8.27;1.90;;;22.40;90.20;;;;;;4969724;28;20107;-75
2021/06/13 11:34:01;;;;;;;6.50;2.17;;;22.50;90.40;;;;;;4969975;28;20032;-74
2021/06/13 11:36:42;;;;;;;6.35;2.72;;;22.50;89.90;;;;;;4968038;28;20031;-75
2021/06/13 11:39:07;;;;;;;9.93;3.10;;;22.80;89.40;;;;;;4969292;28;20031;-75
2021/06/13 11:41:47;;;;;;;10.15;3.00;;;22.80;90.50;;;;;;4967081;28;20078;-75
2021/06/13 11:44:34;;;;;;;6.25;2.90;;;22.70;90.60;;;;;;4973833;28;20039;-75
2021/06/13 11:47:18;;;;;;;;;;;22.50;89.10;;;;;;4969913;28;20499;-75
2021/06/13 11:49:47;;;;;;;6.50;2.10;;;22.60;89.40;;;;;;4986616;28;19918;-75
2021/06/13 11:52:13;;;;;;;6.55;3.13;;;22.70;87.90;;;;;;4971661;28;20019;-75
2021/06/13 11:54:44;;;;;;;3.13;1.55;;;22.70;88.20;;;;;;4969516;28;20073;-75
2021/06/13 11:57:13;;;;;;;8.13;2.92;;;22.80;83.90;;;;;;4969303;28;20047;-75
2021/06/13 11:59:39;;;;;;;6.47;2.90;;;23.10;88.60;;;;;;4984251;28;20036;-75
2021/06/13 12:02:05;;;;;;;8.43;2.38;;;23.10;89.90;;;;;;4969818;28;20058;-75
2021/06/13 12:04:32;;;;;;;11.38;2.80;;;23.20;90.00;;;;;;4967908;28;20069;-77
2021/06/13 12:06:59;;;;;;;6.90;2.97;;;23.20;91.00;;;;;;4974174;28;20090;-74
2021/06/13 12:09:26;;;;;;;6.18;3.13;;;23.20;91.30;;;;;;4975776;28;20285;-74
2021/06/13 12:11:53;;;;;;;;;;;23.10;91.10;;;;;;4970909;28;20042;-74
2021/06/13 12:14:20;;;;;;;4.75;2.97;;;23.00;91.50;;;;;;4965721;28;19952;-74
2021/06/13 12:16:47;;;;;;;;;;;22.90;91.60;;;;;;4968275;28;20069;-74
2021/06/13 12:19:14;;;;;;;12.30;4.28;;;22.90;91.50;;;;;;4971748;28;19993;-75
2021/06/13 12:21:39;;;;;;;12.57;4.03;;;23.20;91.20;;;;;;4970273;28;20105;-74
2021/06/13 12:29:47;;;;;;;6.68;3.83;;;22.90;92.30;;;;;;4976300;28;20105;-75
2021/06/13 12:32:14;;;;;;;8.23;3.00;;;23.00;91.10;;;;;;4978417;28;20027;-76
2021/06/13 12:34:40;;;;;;;5.75;3.38;;;23.10;92.00;;;;;;4977948;28;20062;-74
2021/06/13 12:37:06;;;;;;;15.35;3.13;;;23.10;91.50;;;;;;5000003;28;20057;-76
2021/06/13 12:40:00;;;;;;;11.98;4.80;;;23.00;92.10;;;;;;5002076;28;20019;-77
2021/06/13 12:42:30;;;;;;;6.65;3.05;;;23.30;91.50;;;;;;4981103;28;20035;-76
2021/06/13 12:45:09;;;;;;;9.68;3.20;;;23.60;90.90;;;;;;4983045;28;20031;-76
2021/06/13 12:47:35;;;;;;;10.13;3.58;;;23.80;90.80;;;;;;4985922;28;20170;-76
2021/06/13 12:50:11;;;;;;;8.18;3.85;;;23.70;91.40;;;;;;4987301;28;20015;-76
2021/06/13 12:52:54;;;;;;;13.38;5.03;;;23.40;91.50;;;;;;4982345;28;20035;-76
2021/06/13 12:55:21;;;;;;;7.93;3.30;;;23.20;92.10;;;;;;4987202;28;20065;-76
2021/06/13 12:57:49;;;;;;;10.57;3.35;;;23.50;91.20;;;;;;4990356;28;20051;-76
2021/06/13 13:00:16;;;;;;;8.88;3.75;;;23.80;91.10;;;;;;4987322;28;20039;-75
2021/06/13 13:02:43;;;;;;;;;;;24.00;91.30;;;;;;4995231;28;20019;-75
2021/06/13 13:05:18;;;;;;;6.93;2.92;;;24.30;91.20;;;;;;4997508;28;19901;-75
2021/06/13 13:07:45;;;;;;;11.52;3.40;;;24.20;91.70;;;;;;4995483;28;20010;-75